Time;durP1;ratioP1;P1;durP2;ratioP2;P2;SDS_P1;SDS_P2;PMS_P1;PMS_P2;Temp;Humidity;BMP_temperature;BMP_pressure;BME280_temperature;BME280_humidity;BME280_pressure;Samples;Min_cycle;Max_cycle;Signal;HPM_P1;HPM_P2
2022/09/19 00:00:06;;;;;;;10.50;6.80;;;;;;;7.65;94.97;97492.39;105487;1280;25242;-69
2022/09/19 00:02:56;;;;;;;10.90;6.90;;;;;;;7.68;94.98;97491.57;105477;1280;138936;-69
2022/09/19 00:05:23;;;;;;;10.90;7.00;;;;;;;7.71;94.99;97488.73;105465;1280;23014;-69
2022/09/19 00:07:52;;;;;;;11.40;6.80;;;;;;;7.74;95.37;97485.16;105351;1280;138758;-69
2022/09/19 00:10:21;;;;;;;12.40;7.20;;;;;;;7.76;95.10;97482.58;105371;1280;22545;-69
2022/09/19 00:12:55;;;;;;;11.50;6.80;;;;;;;7.78;95.06;97481.40;105719;1280;22831;-70
2022/09/19 00:15:28;;;;;;;8.50;6.20;;;;;;;7.80;94.98;97479.31;105353;1280;138649;-70
2022/09/19 00:18:00;;;;;;;10.80;7.20;;;;;;;7.82;94.98;97474.63;105457;1280;24387;-70
2022/09/19 00:20:31;;;;;;;;;;;;;;;7.84;95.05;97475.14;105399;1280;139568;-71
2022/09/19 00:25:47;;;;;;;8.40;5.20;;;;;;;7.86;95.12;97474.34;105322;1280;138687;-69
2022/09/19 00:28:15;;;;;;;10.10;6.10;;;;;;;7.85;94.66;97471.91;105438;1280;22530;-69
2022/09/19 00:30:45;;;;;;;10.40;5.80;;;;;;;7.87;94.83;97473.17;105407;1280;22624;-69
2022/09/19 00:33:22;;;;;;;;;;;;;;;7.88;94.86;97469.59;105388;1280;138792;-70
2022/09/19 00:38:07;;;;;;;10.20;5.60;;;;;;;7.90;94.90;97462.59;102924;1306;545314;-70
2022/09/19 00:40:34;;;;;;;10.80;6.30;;;;;;;7.89;95.17;97461.92;104340;1290;22554;-69
2022/09/19 00:43:01;;;;;;;9.10;6.20;;;;;;;7.91;95.07;97464.86;104350;1290;22572;-69
2022/09/19 00:45:28;;;;;;;9.70;5.80;;;;;;;7.92;95.06;97461.46;104272;1290;137450;-70
2022/09/19 00:47:55;;;;;;;9.60;5.70;;;;;;;7.93;94.76;97462.93;104444;1290;22566;-69
2022/09/19 00:50:27;;;;;;;6.90;5.30;;;;;;;7.93;94.52;97460.14;104332;1290;137112;-69
2022/09/19 00:53:06;;;;;;;9.60;5.80;;;;;;;7.92;94.55;97460.77;103567;1287;1538293;-69
2022/09/19 00:55:33;;;;;;;;;;;;;;;7.92;94.86;97462.05;104791;1287;22602;-69
2022/09/19 00:58:22;;;;;;;6.60;5.20;;;;;;;7.91;94.89;97458.64;104644;1287;22844;-69
2022/09/19 01:00:50;;;;;;;9.60;5.50;;;;;;;7.91;94.89;97455.87;104688;1289;24504;-70
2022/09/19 01:03:16;;;;;;;7.60;4.90;;;;;;;7.91;94.82;97457.45;104509;1289;137442;-70
2022/09/19 01:05:49;;;;;;;8.10;5.40;;;;;;;7.82;94.65;97470.13;104500;1289;25415;-70
2022/09/19 01:08:46;;;;;;;10.20;6.10;;;;;;;7.70;94.50;97465.52;104472;1287;138100;-69
2022/09/19 01:11:19;;;;;;;7.30;5.50;;;;;;;7.60;94.71;97466.48;104829;1288;25538;-70
2022/09/19 01:14:25;;;;;;;10.20;6.00;;;;;;;7.57;95.10;97470.02;104515;1287;137637;-70
2022/09/19 01:17:05;;;;;;;7.30;5.40;;;;;;;7.53;95.30;97467.95;104627;1287;25333;-69
2022/09/19 01:20:17;;;;;;;8.70;6.40;;;;;;;7.52;95.73;97467.56;104405;1289;22582;-69
2022/09/19 01:23:05;;;;;;;8.50;6.00;;;;;;;7.52;95.71;97464.10;104434;1288;24245;-69
2022/09/19 01:25:57;;;;;;;9.40;6.40;;;;;;;7.53;96.06;97465.02;104771;1287;24242;-69
2022/09/19 01:28:35;;;;;;;10.20;6.70;;;;;;;7.55;96.34;97465.88;104424;1287;22546;-70
2022/09/19 01:31:17;;;;;;;9.10;5.90;;;;;;;7.57;96.24;97465.56;104838;1287;24322;-69
2022/09/19 01:34:18;;;;;;;9.90;6.20;;;;;;;7.59;96.58;97467.77;104377;1290;137303;-69
2022/09/19 01:36:57;;;;;;;10.30;6.60;;;;;;;7.60;96.63;97468.52;104336;1289;25405;-70
2022/09/19 01:39:26;;;;;;;10.40;6.60;;;;;;;7.62;96.56;97468.73;104462;1289;137467;-69
2022/09/19 01:42:01;;;;;;;11.50;6.60;;;;;;;7.65;96.64;97470.98;104512;1289;25402;-69
2022/09/19 01:44:30;;;;;;;11.70;7.10;;;;;;;7.67;96.59;97470.91;104458;1289;137431;-70
2022/09/19 01:47:14;;;;;;;;;;;;;;;7.69;96.66;97467.02;104688;1290;22524;-69
2022/09/19 01:49:56;;;;;;;9.90;7.60;;;;;;;7.71;96.75;97469.06;104547;1290;123959;-69
2022/09/19 01:52:48;;;;;;;12.30;7.20;;;;;;;7.74;96.89;97473.39;104689;1289;24552;-70
2022/09/19 01:55:19;;;;;;;10.90;6.70;;;;;;;7.78;97.02;97473.54;104645;1290;24245;-69
2022/09/19 01:58:09;;;;;;;8.40;6.70;;;;;;;7.79;96.86;97473.45;104536;1290;137551;-70
2022/09/19 02:00:43;;;;;;;11.10;6.70;;;;;;;7.82;96.59;97473.64;104882;1290;30176;-70
2022/09/19 02:03:42;;;;;;;10.60;6.40;;;;;;;7.83;96.56;97479.20;104679;1290;138355;-69
2022/09/19 02:06:22;;;;;;;8.80;6.90;;;;;;;7.86;96.68;97477.98;104713;1290;23031;-70
2022/09/19 02:09:03;;;;;;;11.80;7.50;;;;;;;7.88;96.35;97480.13;104552;1290;137655;-69
2022/09/19 02:11:45;;;;;;;9.50;6.30;;;;;;;7.89;96.44;97477.27;104661;1290;25463;-70
2022/09/19 02:14:19;;;;;;;12.50;6.60;;;;;;;7.90;96.62;97486.66;104574;1290;138145;-69
2022/09/19 02:17:03;;;;;;;10.20;6.30;;;;;;;7.90;96.29;97491.59;104672;1290;22578;-69
2022/09/19 02:19:32;;;;;;;9.40;5.90;;;;;;;7.90;96.27;97492.78;104624;1290;22564;-70
2022/09/19 02:22:08;;;;;;;9.50;6.90;;;;;;;7.89;96.23;97492.92;104515;1289;137369;-69
2022/09/19 02:24:38;;;;;;;11.80;7.00;;;;;;;7.88;96.25;97492.10;104670;1290;24289;-69
2022/09/19 02:27:11;;;;;;;9.40;6.50;;;;;;;7.87;96.30;97492.73;104526;1290;137588;-69
2022/09/19 02:29:52;;;;;;;9.70;6.60;;;;;;;7.85;96.20;97496.73;104687;1290;22597;-70
2022/09/19 02:32:21;;;;;;;9.50;6.80;;;;;;;7.85;96.11;97495.58;104577;1290;138114;-70
2022/09/19 02:34:53;;;;;;;8.70;6.10;;;;;;;7.83;96.18;97497.58;104625;1290;22568;-70
2022/09/19 02:37:26;;;;;;;7.90;6.30;;;;;;;7.82;95.82;97502.98;104622;1290;24612;-70
2022/09/19 02:40:05;;;;;;;9.50;6.90;;;;;;;7.83;95.92;97500.06;104537;1290;137182;-70
2022/09/19 02:43:03;;;;;;;9.20;6.80;;;;;;;7.82;95.74;97503.20;104626;1289;23945;-70
2022/09/19 02:45:37;;;;;;;8.30;6.80;;;;;;;7.79;95.53;97503.64;104428;1288;137497;-69
2022/09/19 02:48:37;;;;;;;10.70;7.20;;;;;;;7.79;96.14;97505.52;104587;1289;24144;-70
2022/09/19 02:51:15;;;;;;;7.70;6.60;;;;;;;7.79;95.93;97508.95;104503;1289;137675;-70
2022/09/19 02:53:51;;;;;;;9.40;7.20;;;;;;;7.76;95.42;97509.35;104764;1290;22697;-70
2022/09/19 02:56:27;;;;;;;9.70;6.70;;;;;;;7.74;95.76;97512.41;104632;1290;137399;-69
2022/09/19 02:59:00;;;;;;;8.40;6.70;;;;;;;7.71;95.32;97508.74;104779;1291;24355;-70
2022/09/19 03:01:40;;;;;;;9.90;7.10;;;;;;;7.70;95.62;97514.52;104459;1290;137777;-69
2022/09/19 03:04:14;;;;;;;7.80;6.10;;;;;;;7.67;95.38;97513.73;104696;1290;22619;-70
2022/09/19 03:07:12;;;;;;;8.10;5.30;;;;;;;7.62;95.05;97511.70;104643;1291;22567;-70
2022/09/19 03:09:50;;;;;;;8.20;5.30;;;;;;;7.58;95.12;97508.07;104594;1289;137691;-70
2022/09/19 03:12:35;;;;;;;6.90;5.30;;;;;;;7.57;94.89;97513.26;104742;1290;31984;-70
2022/09/19 03:15:05;;;;;;;6.20;4.40;;;;;;;7.54;94.86;97512.89;104622;1287;137245;-70
2022/09/19 03:17:38;;;;;;;5.50;3.90;;;;;;;7.52;94.89;97517.35;104816;1290;24575;-70
2022/09/19 03:20:11;;;;;;;5.70;3.80;;;;;;;7.49;94.63;97523.76;104688;1289;137796;-71
2022/09/19 03:22:41;;;;;;;4.10;3.30;;;;;;;7.46;94.65;97524.09;104613;1290;30776;-70
2022/09/19 03:25:11;;;;;;;4.80;3.60;;;;;;;7.44;94.28;97527.84;104706;1289;23942;-70
2022/09/19 03:27:38;;;;;;;3.70;3.00;;;;;;;7.40;94.01;97533.27;104641;1290;137929;-70
2022/09/19 03:30:11;;;;;;;3.60;2.90;;;;;;;7.38;94.27;97529.57;104682;1290;25452;-70
2022/09/19 03:32:41;;;;;;;4.80;3.50;;;;;;;7.38;94.51;97536.15;104649;1290;137550;-70
2022/09/19 03:35:10;;;;;;;5.50;4.20;;;;;;;7.38;94.36;97537.09;104778;1290;22579;-69
2022/09/19 03:37:37;;;;;;;6.50;4.90;;;;;;;7.36;94.27;97537.10;104768;1287;138773;-70
2022/09/19 03:40:05;;;;;;;6.10;5.00;;;;;;;7.35;94.39;97540.98;104844;1288;24677;-70
2022/09/19 03:42:34;;;;;;;8.80;6.40;;;;;;;7.34;94.38;97541.79;104742;1287;23981;-69
2022/09/19 03:45:04;;;;;;;10.00;6.80;;;;;;;7.34;94.61;97546.23;104436;1289;138105;-70
2022/09/19 03:47:31;;;;;;;10.40;7.20;;;;;;;7.32;94.86;97548.42;104691;1288;22580;-70
2022/09/19 03:49:59;;;;;;;11.80;7.10;;;;;;;7.33;94.94;97551.73;104595;1287;138374;-70
2022/09/19 03:52:29;;;;;;;9.90;7.20;;;;;;;7.32;94.96;97551.30;104702;1287;22556;-71
2022/09/19 03:54:56;;;;;;;8.90;6.40;;;;;;;7.33;94.86;97551.24;105384;1280;22570;-69
2022/09/19 03:57:23;;;;;;;7.70;6.50;;;;;;;7.32;94.90;97546.52;105372;1281;137614;-69
2022/09/19 03:59:50;;;;;;;9.50;6.60;;;;;;;7.31;94.78;97545.80;105423;1281;22535;-69
2022/09/19 04:02:20;;;;;;;9.20;6.20;;;;;;;7.31;95.31;97546.67;105296;1280;137805;-69
2022/09/19 04:04:48;;;;;;;7.90;5.60;;;;;;;7.31;95.11;97545.20;105438;1281;23086;-69
2022/09/19 04:07:15;;;;;;;9.20;5.90;;;;;;;7.32;95.15;97544.27;105234;1280;22577;-70
2022/09/19 04:09:43;;;;;;;7.60;5.90;;;;;;;7.33;95.39;97547.89;105332;1280;137586;-69
2022/09/19 04:12:12;;;;;;;9.70;7.40;;;;;;;7.34;95.10;97545.36;105428;1281;25255;-69
2022/09/19 04:14:39;;;;;;;;;;;;;;;7.32;94.82;97541.27;105303;1281;137559;-69
2022/09/19 04:17:07;;;;;;;10.00;7.60;;;;;;;7.31;94.96;97542.59;105356;1280;24277;-69
2022/09/19 04:19:34;;;;;;;13.10;9.20;;;;;;;7.29;95.11;97542.13;105351;1281;22544;-69
2022/09/19 04:22:21;;;;;;;14.30;8.90;;;;;;;7.28;94.95;97538.54;105414;1280;25506;-69
2022/09/19 04:25:13;;;;;;;12.70;8.40;;;;;;;7.26;95.23;97544.95;105405;1279;25293;-69
2022/09/19 04:28:03;;;;;;;12.50;8.60;;;;;;;7.25;95.31;97551.73;105252;1281;137451;-69
2022/09/19 04:30:32;;;;;;;11.90;8.30;;;;;;;7.26;95.16;97557.26;105315;1280;25265;-69
2022/09/19 04:33:00;;;;;;;13.30;8.40;;;;;;;7.25;95.12;97562.48;105451;1281;137851;-69
2022/09/19 04:35:34;;;;;;;11.40;8.10;;;;;;;7.26;95.31;97559.86;105713;1280;25270;-69
2022/09/19 04:38:07;;;;;;;13.60;8.60;;;;;;;7.28;95.60;97563.78;105320;1280;137877;-72
2022/09/19 04:40:38;;;;;;;13.40;9.10;;;;;;;7.29;95.54;97569.28;105377;1280;24293;-69
2022/09/19 04:43:10;;;;;;;12.20;8.10;;;;;;;7.31;95.69;97572.79;106181;1280;22550;-70
2022/09/19 04:45:40;;;;;;;19.60;10.20;;;;;;;7.33;95.68;97573.25;106180;1280;137741;-70
2022/09/19 04:48:19;;;;;;;15.70;9.80;;;;;;;7.35;95.49;97574.35;106195;1280;22669;-70
2022/09/19 04:50:51;;;;;;;12.70;9.20;;;;;;;7.37;95.50;97579.20;106045;1280;137965;-71
2022/09/19 04:53:22;;;;;;;18.30;9.80;;;;;;;7.40;95.84;97584.14;105423;1281;22548;-70
2022/09/19 04:55:52;;;;;;;12.10;9.30;;;;;;;7.44;95.70;97588.30;105309;1281;137916;-69
2022/09/19 04:58:21;;;;;;;13.80;9.20;;;;;;;7.46;95.47;97589.77;105484;1280;22545;-69
2022/09/19 05:00:53;;;;;;;13.40;9.40;;;;;;;7.48;95.15;97591.19;105506;1281;24803;-72
2022/09/19 05:03:25;;;;;;;12.90;9.70;;;;;;;7.47;95.09;97589.61;105346;1280;137852;-69
2022/09/19 05:05:54;;;;;;;13.50;9.60;;;;;;;7.50;95.33;97593.88;105274;1281;22588;-69
2022/09/19 05:08:31;;;;;;;15.00;10.10;;;;;;;7.53;95.38;97596.63;105261;1280;137899;-69
2022/09/19 05:11:05;;;;;;;16.20;10.50;;;;;;;7.56;95.20;97598.64;105464;1279;25258;-69
2022/09/19 05:13:34;;;;;;;16.10;9.60;;;;;;;7.57;95.35;97602.73;105380;1280;22532;-69
2022/09/19 05:16:01;;;;;;;14.40;10.90;;;;;;;7.62;95.10;97602.91;105351;1281;22625;-69
2022/09/19 05:18:37;;;;;;;19.50;11.60;;;;;;;7.66;95.05;97602.81;105457;1281;26645;-69
2022/09/19 05:21:08;;;;;;;18.50;11.60;;;;;;;7.68;94.99;97605.77;105387;1280;138203;-69
2022/09/19 05:23:36;;;;;;;17.50;11.80;;;;;;;7.69;94.75;97610.06;105396;1280;22627;-69
2022/09/19 05:26:16;;;;;;;16.10;11.30;;;;;;;7.70;94.69;97614.21;105411;1280;139276;-69
2022/09/19 05:28:46;;;;;;;18.20;11.90;;;;;;;7.69;94.34;97615.53;105433;1277;24275;-69
2022/09/19 05:31:18;;;;;;;15.00;9.20;;;;;;;7.67;94.36;97620.05;105424;1279;22563;-70
2022/09/19 05:33:49;;;;;;;17.00;10.50;;;;;;;7.64;94.30;97621.15;105298;1279;138241;-70
2022/09/19 05:36:20;;;;;;;12.90;9.10;;;;;;;7.59;94.07;97622.05;105294;1281;22620;-69
2022/09/19 05:39:03;;;;;;;14.30;8.90;;;;;;;7.60;94.25;97628.34;105385;1280;138064;-69
2022/09/19 05:41:48;;;;;;;15.60;9.40;;;;;;;7.58;94.27;97634.38;105447;1280;22560;-69
2022/09/19 05:44:22;;;;;;;13.80;9.60;;;;;;;7.57;94.26;97636.05;105239;1281;137916;-71
2022/09/19 05:46:56;;;;;;;13.40;8.10;;;;;;;7.56;94.19;97639.77;105902;1280;22551;-70
2022/09/19 05:49:25;;;;;;;15.80;9.20;;;;;;;7.56;94.47;97641.11;105737;1279;22528;-69
2022/09/19 05:51:56;;;;;;;17.80;10.30;;;;;;;7.56;94.45;97644.36;105324;1279;137840;-69
2022/09/19 05:54:28;;;;;;;16.90;10.50;;;;;;;7.57;94.66;97644.84;105490;1280;24328;-69
2022/09/19 05:57:27;;;;;;;20.10;11.80;;;;;;;7.59;94.64;97645.79;105158;1280;139140;-69
2022/09/19 05:59:56;;;;;;;22.20;13.60;;;;;;;7.61;94.48;97653.66;105531;1280;22549;-70
2022/09/19 06:02:23;;;;;;;20.60;14.20;;;;;;;7.63;94.65;97655.11;105433;1280;138052;-69
2022/09/19 06:04:55;;;;;;;22.50;14.60;;;;;;;7.68;94.61;97655.08;105346;1280;22602;-69
2022/09/19 06:07:23;;;;;;;22.80;13.90;;;;;;;7.73;94.58;97653.54;105409;1280;23098;-69
2022/09/19 06:09:52;;;;;;;22.80;14.80;;;;;;;7.76;94.70;97653.42;105348;1279;138094;-69
2022/09/19 06:12:19;;;;;;;22.00;15.30;;;;;;;7.81;94.67;97655.39;105430;1279;25316;-69
2022/09/19 06:14:47;;;;;;;26.80;16.00;;;;;;;7.85;94.18;97657.52;105607;1280;138484;-70
2022/09/19 06:17:16;;;;;;;23.70;17.00;;;;;;;7.87;94.09;97656.73;105490;1280;25337;-69
2022/09/19 06:19:55;;;;;;;22.80;14.60;;;;;;;7.89;93.82;97659.48;105660;1280;138475;-69
2022/09/19 06:22:37;;;;;;;17.70;10.50;;;;;;;7.91;93.63;97653.98;105664;1280;26513;-69
2022/09/19 06:25:04;;;;;;;19.30;13.40;;;;;;;8.10;96.18;97654.39;105753;1280;22547;-69
2022/09/19 06:27:32;;;;;;;29.00;16.70;;;;;;;8.28;94.77;97658.30;105578;1280;138045;-68
2022/09/19 06:29:59;;;;;;;25.40;16.10;;;;;;;8.35;93.74;97662.11;105463;1280;25386;-69
2022/09/19 06:32:33;;;;;;;24.00;15.60;;;;;;;8.39;93.16;97667.69;105381;1280;138025;-69
2022/09/19 06:35:21;;;;;;;20.00;13.90;;;;;;;8.41;92.97;97671.41;105732;1279;25328;-71
2022/09/19 06:37:48;;;;;;;25.40;15.60;;;;;;;8.47;93.58;97669.57;105192;1282;138570;-72
2022/09/19 06:40:18;;;;;;;24.70;15.90;;;;;;;8.52;92.73;97670.34;105478;1281;24560;-72
2022/09/19 06:43:08;;;;;;;21.60;14.80;;;;;;;8.54;92.76;97675.04;105543;1281;22538;-69
2022/09/19 06:46:05;;;;;;;24.00;15.50;;;;;;;8.55;92.22;97673.90;104988;1280;22556;-69
2022/09/19 06:48:48;;;;;;;24.90;14.00;;;;;;;8.57;92.32;97681.77;105479;1280;24272;-70
2022/09/19 06:51:34;;;;;;;23.70;14.80;;;;;;;8.60;91.93;97682.77;105347;1280;137996;-70
2022/09/19 06:54:02;;;;;;;22.80;14.60;;;;;;;8.63;92.18;97684.76;105566;1280;22580;-70
2022/09/19 06:56:30;;;;;;;26.00;14.80;;;;;;;8.68;92.24;97686.02;105267;1281;139190;-71
2022/09/19 06:58:56;;;;;;;25.60;14.70;;;;;;;8.70;91.87;97689.56;105371;1280;24332;-71
2022/09/19 07:01:23;;;;;;;24.30;14.60;;;;;;;8.71;91.75;97688.67;105385;1280;24363;-70
2022/09/19 07:03:51;;;;;;;24.90;15.60;;;;;;;8.71;91.55;97694.63;105409;1280;137880;-69
2022/09/19 07:06:24;;;;;;;27.10;17.30;;;;;;;8.73;91.68;97698.02;105449;1280;22734;-70
2022/09/19 07:09:04;;;;;;;;;;;;;;;8.73;91.24;97702.70;105395;1281;138025;-70
2022/09/19 07:11:31;;;;;;;22.50;13.90;;;;;;;8.70;90.85;97707.05;105415;1280;22562;-70
2022/09/19 07:13:59;;;;;;;20.10;13.00;;;;;;;8.69;90.67;97708.77;105374;1281;138368;-70
2022/09/19 07:16:26;;;;;;;25.80;15.70;;;;;;;8.69;90.25;97708.11;105338;1283;22537;-71
2022/09/19 07:18:53;;;;;;;27.00;17.50;;;;;;;8.74;90.83;97703.35;105472;1280;24291;-70
2022/09/19 07:21:38;;;;;;;24.10;14.70;;;;;;;8.88;90.81;97707.16;105322;1280;138976;-71
2022/09/19 07:24:10;;;;;;;21.80;14.70;;;;;;;8.98;90.65;97711.73;105514;1280;22557;-71
2022/09/19 07:27:00;;;;;;;20.60;13.80;;;;;;;9.08;90.23;97714.68;105224;1281;138015;-71
2022/09/19 07:29:28;;;;;;;20.40;13.70;;;;;;;9.18;90.24;97715.45;105569;1281;25575;-71
2022/09/19 07:31:56;;;;;;;25.20;14.80;;;;;;;9.26;90.08;97719.24;105250;1281;139117;-71
2022/09/19 07:34:25;;;;;;;22.90;14.80;;;;;;;9.38;89.99;97720.89;105443;1281;25277;-71
2022/09/19 07:36:53;;;;;;;26.90;15.60;;;;;;;9.51;89.81;97721.36;105468;1280;22712;-72
2022/09/19 07:39:20;;;;;;;16.60;11.90;;;;;;;9.67;89.07;97725.54;105291;1280;138069;-72
2022/09/19 07:41:58;;;;;;;19.40;11.90;;;;;;;9.83;88.68;97728.08;105415;1280;22576;-72
2022/09/19 07:44:38;;;;;;;19.80;12.20;;;;;;;9.97;88.47;97733.67;105555;1280;138535;-72
2022/09/19 07:47:29;;;;;;;17.70;11.10;;;;;;;10.04;88.11;97734.63;105501;1280;22590;-72
2022/09/19 07:50:06;;;;;;;14.90;11.00;;;;;;;10.04;87.59;97733.48;105340;1280;138863;-72
2022/09/19 07:53:09;;;;;;;14.80;9.30;;;;;;;9.97;86.25;97736.25;105344;1280;25341;-71
2022/09/19 07:55:36;;;;;;;12.90;8.10;;;;;;;9.87;85.64;97737.41;104885;1281;138956;-73
2022/09/19 07:58:05;;;;;;;11.00;7.40;;;;;;;9.76;85.20;97735.09;105452;1278;22757;-71
2022/09/19 08:00:49;;;;;;;10.60;7.80;;;;;;;9.61;84.66;97738.36;105419;1280;22546;-70
2022/09/19 08:03:44;;;;;;;11.90;8.20;;;;;;;9.44;85.17;97744.00;105466;1280;138130;-69
2022/09/19 08:06:12;;;;;;;12.80;6.90;;;;;;;9.32;84.68;97745.06;105460;1280;22714;-70
2022/09/19 08:08:41;;;;;;;12.30;9.00;;;;;;;9.22;85.28;97745.76;105395;1280;137990;-70
2022/09/19 08:11:19;;;;;;;8.50;5.70;;;;;;;9.15;85.51;97747.96;105420;1281;25320;-70
2022/09/19 08:13:47;;;;;;;9.50;7.30;;;;;;;9.07;85.71;97747.86;105264;1281;138004;-70
2022/09/19 08:16:14;;;;;;;17.70;8.60;;;;;;;9.03;86.06;97745.36;105351;1281;24314;-70
2022/09/19 08:18:41;;;;;;;11.90;8.20;;;;;;;9.04;86.59;97744.67;105466;1280;25231;-70
2022/09/19 08:21:08;;;;;;;12.90;7.70;;;;;;;9.09;86.81;97745.44;105323;1280;138967;-70
2022/09/19 08:23:35;;;;;;;12.10;8.00;;;;;;;9.15;87.00;97747.25;105528;1280;22691;-70
2022/09/19 08:26:04;;;;;;;9.60;6.80;;;;;;;9.21;87.00;97751.77;105197;1281;140679;-71
2022/09/19 08:28:31;;;;;;;8.20;5.90;;;;;;;9.34;87.32;97748.24;105412;1281;30471;-71
2022/09/19 08:30:59;;;;;;;9.40;5.80;;;;;;;9.44;87.05;97749.54;105220;1283;138413;-71
2022/09/19 08:33:27;;;;;;;9.00;6.30;;;;;;;9.58;87.43;97748.93;105418;1283;25443;-70
2022/09/19 08:35:54;;;;;;;8.00;5.80;;;;;;;9.75;87.21;97746.66;105467;1280;26708;-71
2022/09/19 08:38:25;;;;;;;7.10;4.80;;;;;;;9.93;86.68;97748.94;105379;1280;137604;-72
2022/09/19 08:41:13;;;;;;;6.50;4.70;;;;;;;10.07;85.01;97747.33;105322;1281;24269;-71
2022/09/19 08:44:14;;;;;;;9.80;4.80;;;;;;;10.21;83.62;97747.16;105224;1281;137968;-70
2022/09/19 08:46:54;;;;;;;5.90;3.80;;;;;;;10.40;83.76;97748.69;105447;1280;22557;-70
2022/09/19 08:49:31;;;;;;;6.20;3.20;;;;;;;10.55;83.03;97741.89;105361;1281;137837;-71
2022/09/19 08:52:22;;;;;;;5.40;3.20;;;;;;;10.69;82.22;97740.88;105320;1281;22734;-71
2022/09/19 08:54:52;;;;;;;4.10;3.40;;;;;;;10.73;81.07;97741.50;104745;1286;138274;-71
2022/09/19 08:57:37;;;;;;;6.10;4.00;;;;;;;10.78;80.39;97740.17;104806;1286;25451;-72
2022/09/19 09:00:16;;;;;;;6.00;3.80;;;;;;;10.89;79.83;97736.02;104852;1286;25289;-71
2022/09/19 09:02:58;;;;;;;11.00;5.50;;;;;;;11.00;78.85;97737.02;104808;1286;24240;-73
2022/09/19 09:05:34;;;;;;;7.30;4.90;;;;;;;11.16;78.49;97731.14;104851;1286;22595;-73
2022/09/19 09:08:26;;;;;;;6.00;4.10;;;;;;;11.32;78.36;97729.23;104627;1286;138231;-72
2022/09/19 09:11:30;;;;;;;5.90;4.30;;;;;;;11.50;76.96;97727.05;104802;1286;22640;-72
2022/09/19 09:14:02;;;;;;;6.50;4.10;;;;;;;11.70;76.79;97724.08;104591;1286;138182;-71
2022/09/19 09:16:44;;;;;;;5.50;4.10;;;;;;;11.92;76.13;97725.49;104847;1286;22551;-73
2022/09/19 09:19:55;;;;;;;4.30;3.70;;;;;;;11.95;74.31;97724.75;104855;1287;137907;-73
2022/09/19 09:22:27;;;;;;;6.80;4.40;;;;;;;12.00;73.76;97726.05;104793;1288;24360;-72
2022/09/19 09:25:22;;;;;;;13.40;5.50;;;;;;;12.22;74.06;97724.69;104581;1287;138142;-72
2022/09/19 09:28:25;;;;;;;7.30;4.70;;;;;;;12.38;73.94;97726.86;105005;1286;22641;-70
2022/09/19 09:31:29;;;;;;;5.50;4.10;;;;;;;12.52;72.92;97728.92;104426;1289;137948;-71
2022/09/19 09:34:19;;;;;;;3.90;3.40;;;;;;;12.55;71.01;97724.77;104421;1290;22837;-72
2022/09/19 09:36:56;;;;;;;5.60;3.70;;;;;;;12.40;71.04;97727.89;104298;1290;138778;-71
2022/09/19 09:39:50;;;;;;;11.10;4.40;;;;;;;12.28;70.54;97722.29;104612;1287;24243;-72
2022/09/19 09:42:25;;;;;;;6.10;3.50;;;;;;;12.09;70.63;97725.89;104384;1289;138447;-72
2022/09/19 09:45:01;;;;;;;7.20;4.00;;;;;;;11.93;71.26;97730.13;104834;1287;22647;-71
2022/09/19 09:47:45;;;;;;;4.60;3.50;;;;;;;11.82;71.41;97731.08;104806;1287;22560;-71
2022/09/19 09:50:40;;;;;;;8.30;3.30;;;;;;;11.72;71.49;97736.30;104788;1286;138038;-71
2022/09/19 09:53:22;;;;;;;4.30;3.10;;;;;;;11.64;71.24;97738.80;103851;1295;24008;-72
2022/09/19 09:56:16;;;;;;;4.30;2.60;;;;;;;11.53;70.57;97739.88;103554;1295;138069;-72
2022/09/19 10:05:38;;;;;;;1.60;1.30;;;;;;;11.11;71.01;97759.52;103537;1298;24568;-71
2022/09/19 10:08:16;;;;;;;1.40;0.90;;;;;;;10.96;70.21;97763.63;103610;1295;137956;-71
2022/09/19 10:10:46;;;;;;;1.30;1.10;;;;;;;10.85;70.29;97762.55;104317;1295;25356;-71
2022/09/19 10:13:31;;;;;;;1.10;0.50;;;;;;;10.77;69.39;97761.04;103924;1295;138283;-70
2022/09/19 10:16:03;;;;;;;0.70;0.70;;;;;;;10.73;69.92;97757.14;103603;1297;25093;-70
2022/09/19 10:18:42;;;;;;;0.90;0.70;;;;;;;10.75;70.55;97757.04;103543;1295;139437;-71
2022/09/19 10:21:10;;;;;;;3.90;1.00;;;;;;;10.80;70.99;97765.50;103876;1297;30241;-71
2022/09/19 10:23:45;;;;;;;1.60;1.50;;;;;;;10.86;71.31;97772.23;103736;1295;22732;-71
2022/09/19 10:26:22;;;;;;;2.30;1.40;;;;;;;10.85;70.83;97777.14;103690;1295;138085;-71
2022/09/19 10:28:59;;;;;;;2.50;1.40;;;;;;;10.80;71.92;97783.75;103941;1295;23962;-71
2022/09/19 10:31:47;;;;;;;1.70;1.60;;;;;;;10.72;72.89;97798.24;104383;1288;138269;-70
2022/09/19 10:34:33;;;;;;;2.90;1.50;;;;;;;10.57;74.42;97805.56;104554;1287;23208;-70
2022/09/19 10:37:08;;;;;;;2.30;1.40;;;;;;;10.42;74.93;97802.71;104881;1284;137801;-69
2022/09/19 10:39:44;;;;;;;2.00;1.40;;;;;;;10.34;76.12;97799.73;105119;1281;24309;-70
2022/09/19 10:42:27;;;;;;;1.90;1.50;;;;;;;10.35;76.93;97797.44;105311;1283;30632;-69
2022/09/19 10:45:02;;;;;;;4.00;1.80;;;;;;;10.33;77.06;97799.54;105501;1281;25365;-69
2022/09/19 10:47:29;;;;;;;1.90;1.50;;;;;;;10.25;76.98;97804.79;105698;1281;25805;-69
2022/09/19 10:50:05;;;;;;;2.30;1.50;;;;;;;10.24;77.67;97805.20;105476;1281;138237;-70
2022/09/19 10:52:49;;;;;;;5.40;1.80;;;;;;;10.28;78.07;97807.35;105674;1282;22589;-69
2022/09/19 10:55:22;;;;;;;2.20;1.80;;;;;;;10.29;78.59;97814.34;105262;1282;137799;-69
2022/09/19 10:57:58;;;;;;;1.20;1.10;;;;;;;10.32;79.00;97817.21;105170;1282;25506;-70
2022/09/19 11:00:30;;;;;;;1.30;1.20;;;;;;;10.34;78.30;97815.43;105345;1280;138405;-69
2022/09/19 11:03:16;;;;;;;1.40;1.00;;;;;;;10.37;78.00;97824.28;105457;1280;22562;-70
2022/09/19 11:05:44;;;;;;;1.40;1.00;;;;;;;10.37;76.65;97821.23;105433;1280;24482;-70
2022/09/19 11:08:25;;;;;;;0.70;0.70;;;;;;;10.40;76.72;97814.35;105301;1280;138124;-70
2022/09/19 11:10:58;;;;;;;1.30;0.70;;;;;;;10.62;76.62;97813.11;105656;1281;22797;-70
2022/09/19 11:13:30;;;;;;;0.80;0.80;;;;;;;10.82;75.87;97810.52;105415;1280;138273;-71
2022/09/19 11:16:28;;;;;;;0.80;0.70;;;;;;;11.11;76.32;97808.45;105369;1280;22563;-70
2022/09/19 11:19:30;;;;;;;0.70;0.50;;;;;;;11.46;76.00;97805.95;105353;1280;138008;-70
2022/09/19 11:22:03;;;;;;;0.60;0.60;;;;;;;11.81;73.53;97801.41;105333;1281;24281;-70
2022/09/19 11:24:49;;;;;;;1.00;0.60;;;;;;;12.13;72.35;97802.48;105315;1280;138207;-71
2022/09/19 11:28:05;;;;;;;0.50;0.50;;;;;;;12.49;70.70;97798.67;105362;1280;25248;-73
2022/09/19 11:30:46;;;;;;;0.90;0.50;;;;;;;12.78;70.44;97800.46;104544;1287;138673;-70
2022/09/19 11:33:21;;;;;;;1.10;0.60;;;;;;;12.82;68.92;97799.45;104478;1289;31562;-71
2022/09/19 11:36:39;;;;;;;3.20;0.40;;;;;;;12.97;68.54;97790.95;104746;1287;22552;-72
2022/09/19 11:39:35;;;;;;;1.90;0.60;;;;;;;13.01;66.97;97790.66;104085;1292;22585;-70
2022/09/19 11:42:10;;;;;;;1.50;0.70;;;;;;;12.85;65.82;97795.18;104178;1293;25901;-72
2022/09/19 11:44:53;;;;;;;0.80;0.80;;;;;;;12.65;65.55;97797.35;103931;1292;25337;-71
2022/09/19 11:48:01;;;;;;;1.40;0.80;;;;;;;12.45;65.92;97797.24;104069;1292;22594;-71
2022/09/19 11:50:46;;;;;;;0.90;0.90;;;;;;;12.29;67.74;97792.89;103966;1292;137221;-71
2022/09/19 11:53:37;;;;;;;2.00;1.30;;;;;;;12.39;68.50;97794.74;103966;1294;22739;-69
2022/09/19 11:56:17;;;;;;;2.40;1.60;;;;;;;12.63;69.38;97794.55;104468;1292;138706;-72
2022/09/19 11:58:55;;;;;;;1.50;1.20;;;;;;;12.76;69.70;97794.22;104313;1292;25323;-71
2022/09/19 12:01:22;;;;;;;4.60;1.90;;;;;;;13.01;68.39;97789.52;103771;1293;139039;-72
2022/09/19 12:04:05;;;;;;;3.00;1.90;;;;;;;13.18;67.12;97787.39;103905;1291;22585;-71
2022/09/19 12:06:41;;;;;;;1.40;1.20;;;;;;;13.28;65.40;97788.84;103817;1287;138531;-70
2022/09/19 12:09:26;;;;;;;1.90;1.50;;;;;;;13.15;64.79;97791.24;104715;1287;25509;-71
2022/09/19 12:12:16;;;;;;;1.50;1.00;;;;;;;12.93;65.92;97794.52;104627;1286;26631;-70
2022/09/19 12:15:40;;;;;;;1.10;1.00;;;;;;;12.63;64.78;97796.26;104773;1287;25421;-71
2022/09/19 12:18:17;;;;;;;1.60;1.20;;;;;;;12.31;65.48;97801.94;104820;1287;24310;-72
2022/09/19 12:20:48;;;;;;;2.00;1.40;;;;;;;12.11;66.28;97798.65;104783;1287;24396;-71